Terminal Aerodrome Forecast
Issued by NWS

Home | Current Version | Previous Version | Text Only | Print | Product List | Glossary On
Versions: 1 2 3 4 5 6 7 8 9 10 11 12 13 14 15 16 17 18 19 20 21 22 23 24 25 26
000
FTUS41 KOKX 211100
TAFSWF
TAF
KSWF 211130Z 2112/2218 VRB03KT 6SM BR OVC012
     FM211600 36005KT P6SM SCT015 BKN025
     FM211800 02004KT P6SM SCT025 BKN035
     FM220300 VRB03KT P6SM BKN015
     FM221700 10005KT 5SM -RA BR BKN010 OVC015
      AMD NOT SKED=

USA.gov is the U.S. government's official web portal to all federal, state and local government web resources and services.